createdAt,value
2023-03-15T00:01:27.345Z,57.82
2023-03-15T00:06:33.854Z,58.68
2023-03-15T00:11:37.187Z,58.13
2023-03-15T00:16:40.373Z,58.84
2023-03-15T00:21:45.380Z,58.96
2023-03-15T00:26:48.662Z,59.40
2023-03-15T00:31:52.703Z,59.66
2023-03-15T00:36:57.397Z,59.38
2023-03-15T00:42:00.668Z,59.31
2023-03-15T00:47:03.926Z,59.15
2023-03-15T00:52:09.041Z,60.13
2023-03-15T00:57:12.362Z,60.26
2023-03-15T01:02:15.994Z,60.58
2023-03-15T01:07:21.528Z,60.79
2023-03-15T01:12:24.950Z,61.05
2023-03-15T01:17:28.816Z,61.18
2023-03-15T01:22:33.445Z,61.62
2023-03-15T01:27:37.030Z,61.61
2023-03-15T01:32:40.626Z,61.71
2023-03-15T01:37:45.255Z,61.30
2023-03-15T01:42:54.312Z,62.17
2023-03-15T01:47:57.568Z,62.36
2023-03-15T01:53:02.280Z,62.53
2023-03-15T01:58:06.954Z,62.28
2023-03-15T02:03:14.969Z,63.19
2023-03-15T02:08:21.165Z,62.60
2023-03-15T02:13:27.489Z,62.30
2023-03-15T02:18:31.199Z,61.72
2023-03-15T02:23:36.204Z,61.38
2023-03-15T02:28:42.370Z,61.08
2023-03-15T02:33:47.614Z,60.74
2023-03-15T02:38:51.923Z,60.25
2023-03-15T02:44:03.232Z,60.32
2023-03-15T02:49:09.291Z,59.96
2023-03-15T02:54:12.523Z,60.05
2023-03-15T02:59:17.313Z,60.45
2023-03-15T03:04:20.848Z,60.58
2023-03-15T03:09:24.626Z,61.03
2023-03-15T03:14:31.367Z,60.48
2023-03-15T03:19:34.921Z,60.79
2023-03-15T03:24:38.288Z,60.83
2023-03-15T03:29:43.322Z,61.49
2023-03-15T03:34:48.539Z,61.78
2023-03-15T03:39:52.567Z,62.25
2023-03-15T03:44:57.363Z,62.79
2023-03-15T03:50:00.509Z,62.77
2023-03-15T03:55:03.853Z,62.47
2023-03-15T04:00:11.996Z,62.64
2023-03-15T04:05:15.386Z,62.72
2023-03-15T04:10:18.778Z,62.26
2023-03-15T04:15:24.349Z,61.65
2023-03-15T04:20:28.980Z,61.45
2023-03-15T04:25:32.246Z,61.38
2023-03-15T04:30:36.849Z,61.15
2023-03-15T04:35:42.749Z,60.80
2023-03-15T04:40:46.854Z,60.51
2023-03-15T04:45:51.909Z,60.42
2023-03-15T04:50:55.183Z,59.61
2023-03-15T04:55:58.412Z,58.74
2023-03-15T05:01:03.237Z,58.13
2023-03-15T05:06:08.364Z,57.69
2023-03-15T05:11:11.741Z,56.87
2023-03-15T05:16:16.370Z,56.52
2023-03-15T05:21:19.992Z,56.88
2023-03-15T05:26:24.906Z,56.78
2023-03-15T05:31:29.674Z,56.60
2023-03-15T05:36:33.124Z,56.69
2023-03-15T05:41:36.512Z,56.12
2023-03-15T05:46:41.253Z,55.87
2023-03-15T05:51:45.007Z,56.27
2023-03-15T05:56:48.209Z,56.69
2023-03-15T06:01:52.883Z,56.00
2023-03-15T06:06:56.437Z,56.68
2023-03-15T06:11:59.960Z,56.84
2023-03-15T06:17:04.620Z,56.72
2023-03-15T06:22:08.125Z,56.25
2023-03-15T06:27:11.573Z,54.86
2023-03-15T06:32:16.265Z,54.93
2023-03-15T06:37:34.131Z,53.81
2023-03-15T06:42:38.971Z,52.45
2023-03-15T06:47:43.672Z,51.18
2023-03-15T07:14:08.151Z,50.03
2023-03-15T07:19:11.350Z,50.04
2023-03-15T07:24:15.001Z,50.49
2023-03-15T07:29:19.939Z,50.89
2023-03-15T07:34:23.383Z,50.07
2023-03-15T07:39:29.236Z,50.50
2023-03-15T07:44:33.989Z,50.83
2023-03-15T07:49:37.262Z,50.41
2023-03-15T07:54:40.826Z,47.58
2023-03-15T07:59:45.996Z,46.37
2023-03-15T08:04:51.177Z,46.19
2023-03-15T08:09:54.712Z,46.21
2023-03-15T08:14:59.449Z,46.00
2023-03-15T08:20:09.661Z,47.18
2023-03-15T08:25:14.743Z,47.73
2023-03-15T08:30:21.275Z,48.54
2023-03-15T08:35:24.691Z,49.01
2023-03-15T08:40:28.499Z,48.99
2023-03-15T08:45:37.467Z,48.01
2023-03-15T08:50:46.131Z,47.16
2023-03-15T08:55:49.943Z,40.32
2023-03-15T09:00:54.839Z,35.33
2023-03-15T09:05:59.625Z,32.69
2023-03-15T09:11:03.977Z,30.44
2023-03-15T09:16:09.182Z,30.11
2023-03-15T09:21:12.555Z,27.91
2023-03-15T09:26:15.878Z,26.58
2023-03-15T09:31:20.585Z,27.46
2023-03-15T09:36:23.997Z,27.51
2023-03-15T09:41:41.307Z,26.96
2023-03-15T09:46:57.271Z,27.16
2023-03-15T09:52:05.822Z,26.92
2023-03-15T09:57:16.821Z,30.05
2023-03-15T10:02:26.399Z,33.51
2023-03-15T10:07:30.098Z,30.65
2023-03-15T10:12:41.537Z,30.46
2023-03-15T10:17:53.758Z,35.70
2023-03-15T10:23:01.802Z,38.82
2023-03-15T10:28:10.832Z,39.68
2023-03-15T10:33:20.001Z,41.25
2023-03-15T10:38:25.707Z,42.22
2023-03-15T10:43:32.527Z,38.83
2023-03-15T10:48:38.803Z,39.52
2023-03-15T10:53:54.027Z,40.45
2023-03-15T10:59:11.531Z,39.56
2023-03-15T11:04:21.540Z,38.06
2023-03-15T11:09:32.346Z,36.74
2023-03-15T11:14:39.115Z,38.83
2023-03-15T11:19:52.929Z,41.46
2023-03-15T11:24:56.307Z,42.04
2023-03-15T11:30:04.467Z,42.25
2023-03-15T11:35:13.744Z,42.55
2023-03-15T11:40:23.280Z,40.64
2023-03-15T11:45:33.399Z,41.01
2023-03-15T11:50:40.128Z,40.90
2023-03-15T11:55:50.476Z,41.41
2023-03-15T12:00:56.958Z,40.59
2023-03-15T12:06:13.666Z,38.92
2023-03-15T12:11:38.675Z,32.79
2023-03-15T12:16:46.477Z,33.64
2023-03-15T12:21:54.934Z,31.62
2023-03-15T12:27:03.643Z,30.29
2023-03-15T12:32:13.736Z,30.82
2023-03-15T12:37:24.756Z,30.44
2023-03-15T12:43:02.186Z,32.20
2023-03-15T12:48:25.904Z,33.67
2023-03-15T12:53:43.853Z,31.94
2023-03-15T12:58:50.352Z,30.62
2023-03-15T13:03:57.482Z,31.41
2023-03-15T13:09:11.827Z,31.29
2023-03-15T13:14:31.611Z,30.68
2023-03-15T13:19:41.947Z,29.79
2023-03-15T13:24:57.921Z,29.55
2023-03-15T13:30:03.334Z,28.25
2023-03-15T13:35:13.263Z,28.68
2023-03-15T13:40:18.422Z,28.81
2023-03-15T13:45:24.430Z,28.24
2023-03-15T13:50:27.890Z,27.49
2023-03-15T13:55:36.123Z,28.81
2023-03-15T14:00:39.589Z,29.91
2023-03-15T14:05:47.549Z,33.80
2023-03-15T14:11:07.326Z,36.46
2023-03-15T14:16:18.202Z,35.13
2023-03-15T14:21:32.349Z,34.52
2023-03-15T14:26:38.859Z,34.53
2023-03-15T14:31:49.022Z,35.81
2023-03-15T14:36:58.099Z,38.83
2023-03-15T14:42:03.053Z,42.30
2023-03-15T14:47:13.817Z,44.47
2023-03-15T14:52:17.371Z,46.81
2023-03-15T14:57:22.365Z,48.49
2023-03-15T15:02:25.847Z,50.01
2023-03-15T15:07:29.760Z,50.86
2023-03-15T15:12:34.636Z,52.93
2023-03-15T15:17:38.188Z,54.84
2023-03-15T15:22:42.495Z,55.34
2023-03-15T15:27:49.062Z,56.28
2023-03-15T15:32:52.938Z,56.20
2023-03-15T15:37:56.878Z,57.55
2023-03-15T15:43:03.443Z,58.28
2023-03-15T15:48:07.815Z,58.36
2023-03-15T15:53:17.521Z,58.96
2023-03-15T15:58:22.964Z,59.11
2023-03-15T16:03:26.176Z,59.31
2023-03-15T16:08:30.780Z,59.74
2023-03-15T16:13:35.721Z,60.20
2023-03-15T16:18:38.970Z,59.41
2023-03-15T16:23:42.569Z,59.73
2023-03-15T16:28:51.922Z,59.95
2023-03-15T16:33:56.597Z,59.98
2023-03-15T16:39:00.394Z,59.81
2023-03-15T16:44:09.717Z,59.29
2023-03-15T16:49:15.447Z,59.65
2023-03-15T16:54:34.424Z,59.40
2023-03-15T16:59:45.314Z,59.23
2023-03-15T17:04:52.971Z,59.64
2023-03-15T17:09:56.518Z,59.72
2023-03-15T17:15:01.995Z,59.27
2023-03-15T17:20:10.325Z,59.82
2023-03-15T17:25:13.807Z,59.53
2023-03-15T17:30:21.598Z,59.94
2023-03-15T17:35:29.101Z,60.01
2023-03-15T17:40:34.150Z,60.03
2023-03-15T17:45:38.953Z,59.49
2023-03-15T17:50:44.890Z,60.65
2023-03-15T17:55:49.251Z,60.26
2023-03-15T18:00:55.343Z,59.80
2023-03-15T18:06:01.525Z,60.35
2023-03-15T18:11:05.027Z,60.29
2023-03-15T18:16:11.902Z,60.47
2023-03-15T18:21:17.741Z,60.85
2023-03-15T18:26:22.125Z,60.33
2023-03-15T18:31:27.522Z,61.21
2023-03-15T18:36:31.705Z,61.63
2023-03-15T18:41:35.069Z,61.83
2023-03-15T18:46:40.087Z,62.01
2023-03-15T18:51:43.483Z,62.14
2023-03-15T18:56:46.806Z,62.30
2023-03-15T19:01:52.649Z,62.47
2023-03-15T19:06:56.430Z,62.40
2023-03-15T19:12:00.129Z,63.11
2023-03-15T19:17:05.138Z,63.03
2023-03-15T19:22:08.719Z,63.23
2023-03-15T19:27:12.111Z,63.86
2023-03-15T19:32:17.018Z,64.06
2023-03-15T19:37:20.442Z,64.08
2023-03-15T19:42:23.837Z,64.51
2023-03-15T19:47:28.647Z,64.49
2023-03-15T19:52:33.370Z,66.23
2023-03-15T19:57:36.958Z,67.52
2023-03-15T20:02:42.673Z,68.83
2023-03-15T20:07:46.397Z,69.17
2023-03-15T20:12:49.925Z,69.11
2023-03-15T20:17:54.639Z,70.16
2023-03-15T20:22:57.976Z,70.38
2023-03-15T20:28:01.480Z,71.02
2023-03-15T20:33:06.537Z,71.83
2023-03-15T20:38:10.432Z,71.95
2023-03-15T20:43:13.798Z,72.35
2023-03-15T20:48:22.120Z,72.15
2023-03-15T20:53:25.745Z,72.70
2023-03-15T20:58:29.797Z,72.75
2023-03-15T21:03:35.501Z,72.62
2023-03-15T21:08:39.376Z,73.50
2023-03-15T21:13:42.766Z,73.49
2023-03-15T21:18:51.878Z,73.53
2023-03-15T21:23:55.542Z,73.91
2023-03-15T21:28:58.922Z,74.13
2023-03-15T21:34:03.651Z,74.14
2023-03-15T21:39:07.890Z,73.63
2023-03-15T21:44:11.557Z,73.37
2023-03-15T21:49:16.469Z,73.90
2023-03-15T21:54:20.168Z,74.28
2023-03-15T21:59:27.988Z,73.80
2023-03-15T22:04:34.197Z,74.05
2023-03-15T22:09:38.408Z,74.44
2023-03-15T22:14:42.222Z,74.13
2023-03-15T22:19:47.269Z,74.20
2023-03-15T22:24:51.025Z,74.18
2023-03-15T22:29:54.819Z,74.01
2023-03-15T22:34:59.936Z,75.44
2023-03-15T22:40:04.842Z,76.91
2023-03-15T22:45:09.810Z,77.95
2023-03-15T22:50:15.818Z,78.54
2023-03-15T22:55:20.894Z,78.84
2023-03-15T23:00:27.356Z,79.57
2023-03-15T23:05:32.457Z,79.65
2023-03-15T23:10:36.685Z,79.63
2023-03-15T23:15:40.535Z,80.08
2023-03-15T23:20:45.390Z,80.36
2023-03-15T23:25:48.649Z,81.52
2023-03-15T23:30:52.094Z,81.66
2023-03-15T23:35:57.651Z,82.35
2023-03-15T23:41:02.208Z,82.98
2023-03-15T23:46:06.759Z,82.77
2023-03-15T23:51:12.757Z,82.39
2023-03-15T23:56:16.046Z,82.34
